Time;durP1;ratioP1;P1;durP2;ratioP2;P2;SDS_P1;SDS_P2;PMS_P1;PMS_P2;Temp;Humidity;BMP_temperature;BMP_pressure;BME280_temperature;BME280_humidity;BME280_pressure;Samples;Min_cycle;Max_cycle;Signal;HPM_P1;HPM_P2
2021/07/27 00:01:12;;;;;;;39.50;31.05;;;;;;;;;;5023945;28;20178;-67
2021/07/27 00:03:38;;;;;;;37.50;29.25;;;;;;;;;;5023387;28;20190;-67
2021/07/27 00:06:07;;;;;;;43.60;30.30;;;;;;;;;;5022254;28;20687;-68
2021/07/27 00:08:36;;;;;;;46.97;34.33;;;;;;;;;;5025435;28;20202;-68
2021/07/27 00:11:08;;;;;;;46.10;34.97;;;;;;;;;;5021988;28;20191;-68
2021/07/27 00:13:35;;;;;;;41.53;30.73;;;;;;;;;;5019915;28;20182;-68
2021/07/27 00:16:01;;;;;;;39.03;31.23;;;;;;;;;;5019200;28;20494;-67
2021/07/27 00:18:26;;;;;;;40.35;30.92;;;;;;;;;;5028784;28;20178;-67
2021/07/27 00:20:51;;;;;;;43.38;30.88;;;;;;;;;;5009544;28;20297;-67
2021/07/27 00:23:17;;;;;;;37.70;28.25;;;;;;;;;;5025894;28;20190;-70
2021/07/27 00:25:43;;;;;;;41.53;30.20;;;;;;;;;;5012826;28;20206;-67
2021/07/27 00:28:09;;;;;;;42.33;30.95;;;;;;;;;;5027088;28;20190;-68
2021/07/27 00:30:35;;;;;;;38.28;29.83;;;;;;;;;;5009110;28;20190;-66
2021/07/27 00:33:00;;;;;;;43.63;31.58;;;;;;;;;;5027343;28;20755;-68
2021/07/27 00:35:27;;;;;;;40.85;30.90;;;;;;;;;;5011820;28;20673;-67
2021/07/27 00:38:08;;;;;;;40.13;31.88;;;;;;;;;;5030782;28;20520;-68
2021/07/27 00:40:38;;;;;;;44.92;33.70;;;;;;;;;;5011859;28;20248;-70
2021/07/27 00:43:08;;;;;;;41.60;32.83;;;;;;;;;;5025665;28;20186;-69
2021/07/27 00:45:33;;;;;;;41.28;30.20;;;;;;;;;;5007290;28;20214;-69
2021/07/27 00:48:00;;;;;;;42.22;31.48;;;;;;;;;;5030014;28;20237;-71
2021/07/27 00:50:26;;;;;;;39.47;27.73;;;;;;;;;;5022167;28;20193;-72
2021/07/27 00:52:53;;;;;;;42.58;32.95;;;;;;;;;;5019179;28;20185;-69
2021/07/27 00:55:18;;;;;;;46.97;32.92;;;;;;;;;;5022914;28;20310;-68
2021/07/27 00:57:44;;;;;;;49.15;34.05;;;;;;;;;;5017497;28;20186;-69
2021/07/27 01:00:11;;;;;;;51.03;34.70;;;;;;;;;;5019431;28;20259;-70
2021/07/27 01:02:37;;;;;;;48.97;32.42;;;;;;;;;;5006255;28;20277;-71
2021/07/27 01:05:02;;;;;;;51.78;35.38;;;;;;;;;;5036676;28;20674;-68
2021/07/27 01:07:28;;;;;;;46.75;31.45;;;;;;;;;;5020242;28;20259;-69
2021/07/27 01:09:53;;;;;;;40.10;28.15;;;;;;;;;;5022870;28;20202;-70
2021/07/27 01:12:19;;;;;;;47.00;33.53;;;;;;;;;;5016981;28;20189;-68
2021/07/27 01:14:44;;;;;;;48.25;33.90;;;;;;;;;;5024872;28;20189;-67
2021/07/27 01:17:10;;;;;;;50.72;34.55;;;;;;;;;;5020547;28;20657;-68
2021/07/27 01:20:00;;;;;;;43.88;30.67;;;;;;;;;;5026384;28;20186;-67
2021/07/27 01:44:02;;;;;;;52.17;36.63;;;;;;;;;;5017425;28;20201;-67
2021/07/27 01:46:34;;;;;;;54.13;35.53;;;;;;;;;;5029009;28;20225;-68
2021/07/27 01:49:00;;;;;;;55.65;33.83;;;;;;;;;;5018546;28;20576;-70
2021/07/27 01:51:26;;;;;;;56.65;38.05;;;;;;;;;;5021893;28;20182;-69
2021/07/27 01:53:53;;;;;;;54.15;36.38;;;;;;;;;;5016524;28;20236;-67
2021/07/27 01:56:20;;;;;;;60.25;36.92;;;;;;;;;;5025244;28;20283;-69
2021/07/27 01:58:49;;;;;;;60.33;35.85;;;;;;;;;;5022211;28;20526;-75
2021/07/27 02:01:16;;;;;;;64.70;39.15;;;;;;;;;;5012749;28;20218;-68
2021/07/27 02:03:41;;;;;;;57.83;35.88;;;;;;;;;;5030914;28;20536;-71
2021/07/27 02:06:07;;;;;;;57.08;38.08;;;;;;;;;;5015001;28;20185;-68
2021/07/27 02:08:32;;;;;;;59.33;35.22;;;;;;;;;;5025769;28;20685;-68
2021/07/27 02:11:06;;;;;;;69.50;41.10;;;;;;;;;;5012914;28;20190;-68
2021/07/27 02:13:45;;;;;;;64.60;39.53;;;;;;;;;;5024312;28;20622;-68
2021/07/27 02:16:10;;;;;;;65.18;40.53;;;;;;;;;;5004419;28;20260;-67
2021/07/27 02:18:36;;;;;;;62.03;39.10;;;;;;;;;;5029377;28;20178;-68
2021/07/27 02:21:01;;;;;;;68.10;40.13;;;;;;;;;;5012891;28;20547;-70
2021/07/27 02:23:26;;;;;;;67.15;39.65;;;;;;;;;;5026785;28;20178;-72
2021/07/27 02:25:52;;;;;;;61.72;36.88;;;;;;;;;;5014852;28;20325;-70
2021/07/27 02:28:17;;;;;;;60.20;35.85;;;;;;;;;;5025793;28;20264;-68
2021/07/27 02:30:48;;;;;;;51.75;32.88;;;;;;;;;;5019214;28;20188;-69
2021/07/27 02:33:15;;;;;;;58.13;35.13;;;;;;;;;;5024242;28;20209;-68
2021/07/27 02:35:41;;;;;;;55.10;32.85;;;;;;;;;;5020904;28;20186;-70
2021/07/27 02:38:07;;;;;;;49.53;30.90;;;;;;;;;;5015741;28;20190;-69
2021/07/27 02:40:33;;;;;;;62.63;36.53;;;;;;;;;;5020496;28;20189;-69
2021/07/27 02:43:01;;;;;;;62.00;37.53;;;;;;;;;;5017496;28;20194;-72
2021/07/27 02:45:26;;;;;;;61.42;37.30;;;;;;;;;;5018149;28;20186;-70
2021/07/27 02:47:52;;;;;;;66.47;38.15;;;;;;;;;;5020646;28;20691;-69
2021/07/27 02:50:17;;;;;;;70.28;38.88;;;;;;;;;;5024282;28;20637;-70
2021/07/27 02:52:43;;;;;;;60.65;35.58;;;;;;;;;;5023622;28;20205;-68
2021/07/27 02:55:11;;;;;;;56.03;33.65;;;;;;;;;;5024506;28;20181;-68
2021/07/27 02:57:38;;;;;;;57.20;34.45;;;;;;;;;;5020898;28;20244;-67
2021/07/27 03:00:13;;;;;;;50.30;29.73;;;;;;;;;;5018829;28;20206;-67
2021/07/27 03:02:40;;;;;;;44.60;27.58;;;;;;;;;;5019220;28;20185;-67
2021/07/27 03:05:07;;;;;;;59.13;35.03;;;;;;;;;;5025843;28;20186;-67
2021/07/27 03:07:35;;;;;;;60.22;36.40;;;;;;;;;;5012274;28;20233;-67
2021/07/27 03:10:19;;;;;;;65.47;38.72;;;;;;;;;;5022287;28;20190;-67
2021/07/27 03:12:55;;;;;;;66.45;38.15;;;;;;;;;;5033120;28;20173;-68
2021/07/27 03:15:25;;;;;;;75.68;42.08;;;;;;;;;;5022725;28;20201;-67
2021/07/27 03:17:58;;;;;;;81.50;46.40;;;;;;;;;;5023519;28;20182;-68
2021/07/27 03:20:25;;;;;;;82.35;46.53;;;;;;;;;;5017306;28;20703;-67
2021/07/27 03:22:54;;;;;;;76.03;44.63;;;;;;;;;;5026690;28;20178;-67
2021/07/27 03:25:20;;;;;;;82.47;47.92;;;;;;;;;;5018307;28;20604;-68
2021/07/27 03:27:48;;;;;;;79.55;47.15;;;;;;;;;;5031015;28;20628;-67
2021/07/27 03:30:14;;;;;;;79.82;46.88;;;;;;;;;;5015275;28;20676;-67
2021/07/27 03:32:40;;;;;;;82.70;47.95;;;;;;;;;;5024331;28;20182;-70
2021/07/27 03:35:06;;;;;;;82.80;46.72;;;;;;;;;;5020447;28;20193;-67
2021/07/27 03:37:33;;;;;;;80.35;47.00;;;;;;;;;;5022310;28;20912;-68
2021/07/27 03:39:59;;;;;;;78.18;46.35;;;;;;;;;;5020624;28;20190;-67
2021/07/27 03:42:24;;;;;;;79.53;46.65;;;;;;;;;;5020440;28;20874;-67
2021/07/27 03:44:57;;;;;;;77.63;45.28;;;;;;;;;;5019779;28;20640;-68
2021/07/27 03:47:23;;;;;;;80.35;44.45;;;;;;;;;;5023771;28;20292;-67
2021/07/27 03:49:48;;;;;;;76.97;43.03;;;;;;;;;;5017891;28;20187;-67
2021/07/27 03:52:13;;;;;;;68.20;40.75;;;;;;;;;;5022996;28;20193;-67
2021/07/27 03:54:39;;;;;;;75.45;43.40;;;;;;;;;;5026829;28;20232;-67
2021/07/27 03:57:05;;;;;;;78.22;44.28;;;;;;;;;;5020869;28;20283;-67
2021/07/27 03:59:31;;;;;;;77.10;44.65;;;;;;;;;;5021062;28;20210;-67
2021/07/27 04:01:56;;;;;;;77.57;43.72;;;;;;;;;;5018916;28;20190;-67
2021/07/27 04:04:22;;;;;;;78.07;44.45;;;;;;;;;;5036721;28;20178;-67
2021/07/27 04:06:48;;;;;;;79.15;44.35;;;;;;;;;;5019018;28;21329;-67
2021/07/27 04:09:14;;;;;;;82.47;43.85;;;;;;;;;;5022040;28;20221;-67
2021/07/27 04:11:40;;;;;;;75.20;43.17;;;;;;;;;;5018305;28;20229;-66
2021/07/27 04:14:05;;;;;;;74.82;42.55;;;;;;;;;;5024255;28;20221;-66
2021/07/27 04:16:31;;;;;;;82.63;44.40;;;;;;;;;;5014291;28;20380;-67
2021/07/27 04:18:56;;;;;;;82.72;43.67;;;;;;;;;;5024110;28;20200;-68
2021/07/27 04:21:22;;;;;;;81.70;44.42;;;;;;;;;;5007753;28;20222;-67
2021/07/27 04:23:48;;;;;;;96.00;47.53;;;;;;;;;;5023136;28;20232;-67
2021/07/27 04:26:13;;;;;;;86.35;46.17;;;;;;;;;;5022096;28;20182;-67
2021/07/27 04:28:38;;;;;;;70.03;39.75;;;;;;;;;;5016615;28;20207;-67
2021/07/27 04:31:04;;;;;;;75.53;41.83;;;;;;;;;;5037785;28;20328;-67
2021/07/27 04:33:29;;;;;;;80.30;43.63;;;;;;;;;;5019536;28;20194;-67
2021/07/27 04:35:54;;;;;;;69.50;39.10;;;;;;;;;;5021344;28;20221;-67
2021/07/27 04:38:23;;;;;;;83.78;42.88;;;;;;;;;;5017555;28;20186;-67
2021/07/27 04:40:52;;;;;;;87.97;46.65;;;;;;;;;;5021617;28;20316;-66
2021/07/27 04:43:17;;;;;;;62.40;36.55;;;;;;;;;;5018360;28;20194;-70
2021/07/27 04:45:43;;;;;;;85.18;45.50;;;;;;;;;;5024429;28;20221;-69
2021/07/27 04:48:08;;;;;;;66.82;38.75;;;;;;;;;;5019517;28;20315;-70
2021/07/27 04:50:35;;;;;;;89.28;45.80;;;;;;;;;;5021437;28;20187;-67
2021/07/27 04:53:01;;;;;;;86.22;44.70;;;;;;;;;;5020583;28;20585;-67
2021/07/27 04:55:26;;;;;;;89.97;47.83;;;;;;;;;;5022747;28;20653;-67
2021/07/27 04:57:52;;;;;;;89.25;46.83;;;;;;;;;;5017677;28;20190;-71
2021/07/27 05:00:18;;;;;;;84.20;46.80;;;;;;;;;;5017364;28;20226;-68
2021/07/27 05:02:43;;;;;;;85.00;45.78;;;;;;;;;;5034756;28;20193;-67
2021/07/27 05:05:09;;;;;;;84.50;45.85;;;;;;;;;;5012617;28;20194;-71
2021/07/27 05:07:34;;;;;;;84.40;47.67;;;;;;;;;;5031170;28;20641;-68
2021/07/27 05:10:00;;;;;;;86.60;48.22;;;;;;;;;;5007352;28;20198;-68
2021/07/27 05:12:25;;;;;;;85.75;47.35;;;;;;;;;;5023423;28;20190;-67
2021/07/27 05:14:50;;;;;;;82.35;46.80;;;;;;;;;;5015332;28;20601;-67
2021/07/27 05:17:16;;;;;;;93.63;49.25;;;;;;;;;;5017412;28;20605;-68
2021/07/27 05:19:49;;;;;;;88.70;47.42;;;;;;;;;;5019057;28;20194;-68
2021/07/27 05:22:14;;;;;;;84.72;48.95;;;;;;;;;;5025610;28;20949;-68
2021/07/27 05:24:39;;;;;;;77.95;42.72;;;;;;;;;;5015317;28;20282;-69
2021/07/27 05:27:05;;;;;;;80.32;45.47;;;;;;;;;;5032095;28;20178;-69
2021/07/27 05:29:30;;;;;;;89.90;46.85;;;;;;;;;;5014705;28;20297;-71
2021/07/27 05:31:56;;;;;;;89.28;47.42;;;;;;;;;;5025127;28;20227;-68
2021/07/27 05:34:22;;;;;;;89.82;48.50;;;;;;;;;;5018612;28;20186;-72
2021/07/27 05:36:48;;;;;;;91.18;51.50;;;;;;;;;;5020732;28;20194;-71
2021/07/27 05:39:14;;;;;;;87.13;48.40;;;;;;;;;;5018877;28;20244;-71
2021/07/27 05:41:39;;;;;;;103.65;55.17;;;;;;;;;;5016219;28;20182;-69
2021/07/27 05:44:05;;;;;;;90.30;50.25;;;;;;;;;;5022035;28;20650;-71
2021/07/27 05:46:30;;;;;;;97.35;51.97;;;;;;;;;;5022149;28;20212;-72
2021/07/27 05:48:56;;;;;;;91.65;52.35;;;;;;;;;;5018461;28;20206;-72
2021/07/27 05:51:22;;;;;;;84.35;47.53;;;;;;;;;;5030424;28;20182;-71
2021/07/27 05:53:47;;;;;;;88.55;51.58;;;;;;;;;;5019513;28;20220;-69
2021/07/27 05:56:13;;;;;;;94.15;51.60;;;;;;;;;;5019129;28;20221;-68
2021/07/27 05:58:38;;;;;;;88.32;49.45;;;;;;;;;;5017581;28;20236;-70
2021/07/27 06:01:07;;;;;;;93.72;54.03;;;;;;;;;;5022998;28;20213;-72
2021/07/27 06:03:32;;;;;;;85.88;48.03;;;;;;;;;;5021654;28;20186;-73
2021/07/27 06:05:57;;;;;;;93.05;53.03;;;;;;;;;;5025106;28;20184;-69
2021/07/27 06:08:23;;;;;;;94.00;53.53;;;;;;;;;;5012082;28;20209;-72
2021/07/27 06:10:48;;;;;;;95.13;54.05;;;;;;;;;;5018556;28;20241;-70
2021/07/27 06:13:13;;;;;;;89.38;52.10;;;;;;;;;;5012145;28;20688;-70
2021/07/27 06:15:38;;;;;;;80.53;46.53;;;;;;;;;;5026410;28;20179;-69
2021/07/27 06:18:04;;;;;;;80.03;48.97;;;;;;;;;;5010400;28;20222;-70
2021/07/27 06:20:29;;;;;;;77.72;45.55;;;;;;;;;;5024567;28;20183;-71
2021/07/27 06:22:54;;;;;;;67.90;44.92;;;;;;;;;;5018754;28;20224;-73
2021/07/27 06:25:20;;;;;;;72.38;47.60;;;;;;;;;;5026957;28;20181;-70
2021/07/27 06:27:45;;;;;;;79.95;48.63;;;;;;;;;;5020906;28;20238;-71
2021/07/27 06:30:12;;;;;;;71.55;46.45;;;;;;;;;;5028471;28;20315;-70
2021/07/27 06:32:37;;;;;;;70.47;45.67;;;;;;;;;;5017571;28;20193;-69
2021/07/27 06:35:03;;;;;;;71.47;46.92;;;;;;;;;;5029093;28;20186;-69
2021/07/27 06:37:28;;;;;;;71.13;45.83;;;;;;;;;;5021377;28;20193;-70
2021/07/27 06:39:54;;;;;;;65.25;43.05;;;;;;;;;;5018976;28;20204;-67
2021/07/27 06:42:19;;;;;;;59.35;41.72;;;;;;;;;;5022776;28;20193;-71
2021/07/27 06:44:44;;;;;;;56.97;40.13;;;;;;;;;;5016366;28;20197;-69
2021/07/27 06:47:10;;;;;;;53.30;36.97;;;;;;;;;;5022507;28;20190;-70
2021/07/27 06:49:35;;;;;;;53.15;37.88;;;;;;;;;;5021710;28;20202;-72
2021/07/27 06:52:01;;;;;;;52.08;36.65;;;;;;;;;;5020972;28;20194;-72
2021/07/27 06:54:26;;;;;;;48.35;34.67;;;;;;;;;;5018416;28;20190;-69
2021/07/27 06:56:55;;;;;;;46.97;33.97;;;;;;;;;;5020974;28;20230;-68
2021/07/27 06:59:23;;;;;;;53.03;35.33;;;;;;;;;;5018752;28;20231;-73
2021/07/27 07:01:51;;;;;;;48.03;34.55;;;;;;;;;;5022567;28;20186;-71
2021/07/27 07:04:17;;;;;;;46.20;32.97;;;;;;;;;;5024072;28;20190;-70
2021/07/27 07:06:42;;;;;;;44.58;33.67;;;;;;;;;;5023228;28;20190;-70
2021/07/27 07:09:07;;;;;;;44.30;31.35;;;;;;;;;;5032999;28;20216;-69
2021/07/27 07:11:33;;;;;;;46.58;32.42;;;;;;;;;;5018356;28;20199;-72
2021/07/27 07:13:59;;;;;;;46.70;33.42;;;;;;;;;;5023835;28;20598;-71
2021/07/27 07:16:24;;;;;;;43.88;32.20;;;;;;;;;;5016986;28;20971;-70
2021/07/27 07:18:50;;;;;;;43.33;32.53;;;;;;;;;;5023928;28;20179;-72
2021/07/27 07:21:15;;;;;;;43.47;31.58;;;;;;;;;;5034222;28;20194;-69
2021/07/27 07:23:41;;;;;;;46.03;32.67;;;;;;;;;;5040610;28;20217;-68
2021/07/27 07:26:08;;;;;;;36.30;28.88;;;;;;;;;;5016994;28;20221;-70
2021/07/27 07:28:34;;;;;;;41.28;29.23;;;;;;;;;;5028969;28;20336;-72
2021/07/27 07:31:00;;;;;;;39.38;28.98;;;;;;;;;;5032663;28;22476;-69
2021/07/27 07:33:26;;;;;;;37.85;28.13;;;;;;;;;;5037981;28;20281;-74
2021/07/27 07:35:51;;;;;;;35.83;27.35;;;;;;;;;;5017442;28;20197;-69
2021/07/27 07:38:16;;;;;;;39.22;27.92;;;;;;;;;;5025042;28;20174;-70
2021/07/27 07:40:42;;;;;;;36.35;26.42;;;;;;;;;;5025184;28;20329;-72
2021/07/27 07:43:07;;;;;;;34.28;27.38;;;;;;;;;;5016408;28;20237;-71
2021/07/27 07:45:32;;;;;;;34.47;27.85;;;;;;;;;;5020928;28;20186;-71
2021/07/27 07:47:58;;;;;;;37.33;29.98;;;;;;;;;;5021007;28;20206;-69
2021/07/27 07:50:23;;;;;;;38.17;27.50;;;;;;;;;;5019877;28;20189;-69
2021/07/27 07:53:03;;;;;;;36.35;26.85;;;;;;;;;;5021829;28;20198;-71
2021/07/27 07:55:29;;;;;;;35.47;26.17;;;;;;;;;;5022218;28;20194;-71
2021/07/27 07:57:56;;;;;;;33.00;25.95;;;;;;;;;;5019376;28;20179;-72
2021/07/27 08:00:23;;;;;;;32.97;25.27;;;;;;;;;;5025143;28;20364;-69
2021/07/27 08:02:52;;;;;;;33.70;26.20;;;;;;;;;;5021589;28;20695;-71
2021/07/27 08:05:18;;;;;;;35.42;25.30;;;;;;;;;;5025507;28;20193;-69
2021/07/27 08:07:43;;;;;;;31.13;24.30;;;;;;;;;;5020951;28;20193;-71
2021/07/27 08:10:09;;;;;;;30.10;24.75;;;;;;;;;;5023790;28;20186;-70
2021/07/27 08:12:34;;;;;;;29.00;23.83;;;;;;;;;;5019632;28;20309;-73
2021/07/27 08:15:00;;;;;;;27.63;23.00;;;;;;;;;;5013461;28;20214;-71
2021/07/27 08:17:25;;;;;;;27.60;22.60;;;;;;;;;;5023392;28;20310;-69
2021/07/27 08:19:51;;;;;;;28.80;22.63;;;;;;;;;;5027544;28;20182;-72
2021/07/27 08:22:16;;;;;;;30.63;23.17;;;;;;;;;;5032945;28;20259;-70
2021/07/27 08:24:41;;;;;;;29.13;22.77;;;;;;;;;;5016164;28;20622;-70
2021/07/27 08:27:09;;;;;;;26.63;21.90;;;;;;;;;;5020220;28;20186;-68
2021/07/27 08:29:38;;;;;;;27.05;20.98;;;;;;;;;;5012800;28;20516;-70
2021/07/27 08:32:10;;;;;;;28.80;22.73;;;;;;;;;;5023358;28;20186;-70
2021/07/27 08:34:41;;;;;;;25.20;20.92;;;;;;;;;;5016658;28;20193;-70
2021/07/27 08:37:07;;;;;;;30.55;23.20;;;;;;;;;;5027525;28;20308;-69
2021/07/27 08:39:33;;;;;;;31.52;22.52;;;;;;;;;;5019155;28;20217;-70
2021/07/27 08:42:01;;;;;;;26.95;22.38;;;;;;;;;;5025266;28;20229;-72
2021/07/27 08:44:30;;;;;;;28.63;19.98;;;;;;;;;;5012897;28;20173;-70
2021/07/27 08:46:56;;;;;;;26.23;20.25;;;;;;;;;;5020730;28;20178;-73
2021/07/27 08:49:21;;;;;;;28.05;21.73;;;;;;;;;;5026090;28;20246;-69
2021/07/27 08:51:47;;;;;;;24.90;19.45;;;;;;;;;;5008937;28;20450;-69
2021/07/27 08:54:15;;;;;;;27.73;20.48;;;;;;;;;;5031260;28;20192;-71
2021/07/27 08:56:44;;;;;;;27.77;20.65;;;;;;;;;;5015388;28;20226;-70
2021/07/27 08:59:10;;;;;;;25.67;21.17;;;;;;;;;;5026934;28;20260;-74
2021/07/27 09:01:36;;;;;;;25.48;20.75;;;;;;;;;;5032370;28;20193;-71
2021/07/27 09:04:02;;;;;;;27.55;20.77;;;;;;;;;;5026163;28;20192;-73
2021/07/27 09:06:27;;;;;;;23.35;19.95;;;;;;;;;;5030014;28;20205;-73
2021/07/27 09:09:10;;;;;;;24.83;19.80;;;;;;;;;;5028096;28;20530;-71
2021/07/27 09:11:46;;;;;;;28.20;21.73;;;;;;;;;;5011395;28;20190;-70
2021/07/27 09:14:21;;;;;;;28.17;21.60;;;;;;;;;;5027410;28;20228;-73
2021/07/27 09:16:48;;;;;;;26.77;20.60;;;;;;;;;;5014551;28;20182;-71
2021/07/27 09:19:14;;;;;;;27.77;20.75;;;;;;;;;;5029150;28;20178;-69
2021/07/27 09:21:42;;;;;;;28.10;21.88;;;;;;;;;;5013647;28;20534;-69
2021/07/27 09:24:08;;;;;;;28.27;21.10;;;;;;;;;;5030308;28;20182;-72
2021/07/27 09:26:33;;;;;;;25.48;20.85;;;;;;;;;;5015946;28;20182;-70
2021/07/27 09:29:06;;;;;;;27.30;21.45;;;;;;;;;;5042117;28;20205;-69
2021/07/27 09:31:32;;;;;;;28.10;22.35;;;;;;;;;;5017876;28;20193;-71
2021/07/27 09:34:09;;;;;;;27.55;22.00;;;;;;;;;;5021309;28;20190;-69
2021/07/27 09:36:35;;;;;;;29.60;21.85;;;;;;;;;;5023202;28;20209;-69
2021/07/27 09:39:04;;;;;;;27.92;20.17;;;;;;;;;;5016684;28;20217;-69
2021/07/27 09:41:30;;;;;;;24.10;19.83;;;;;;;;;;5020724;28;20664;-71
2021/07/27 09:43:59;;;;;;;21.85;17.77;;;;;;;;;;5016685;28;20186;-68
2021/07/27 09:46:25;;;;;;;23.75;18.20;;;;;;;;;;5023544;28;20190;-67
2021/07/27 09:48:52;;;;;;;23.52;17.80;;;;;;;;;;5018180;28;20198;-68
2021/07/27 09:51:18;;;;;;;26.30;19.25;;;;;;;;;;5017908;28;20436;-68
2021/07/27 09:53:45;;;;;;;22.70;18.98;;;;;;;;;;5034301;28;20205;-70
2021/07/27 09:56:10;;;;;;;21.92;18.15;;;;;;;;;;5034361;28;20754;-71
2021/07/27 09:58:37;;;;;;;22.42;17.77;;;;;;;;;;5018227;28;20182;-71
2021/07/27 10:01:17;;;;;;;27.35;18.30;;;;;;;;;;5019867;28;20210;-72
2021/07/27 10:03:48;;;;;;;24.05;18.08;;;;;;;;;;5023403;28;20689;-70
2021/07/27 10:06:21;;;;;;;21.17;17.15;;;;;;;;;;5020488;28;20307;-72
2021/07/27 10:08:53;;;;;;;24.45;17.85;;;;;;;;;;5009787;28;20283;-69
2021/07/27 10:11:18;;;;;;;21.42;16.23;;;;;;;;;;5022740;28;20255;-70
2021/07/27 10:13:48;;;;;;;23.33;17.02;;;;;;;;;;5024227;28;20446;-68
2021/07/27 10:16:25;;;;;;;20.55;16.50;;;;;;;;;;5022899;28;20189;-69
2021/07/27 10:18:51;;;;;;;21.60;16.90;;;;;;;;;;5026035;28;20177;-69
2021/07/27 10:21:25;;;;;;;21.27;17.05;;;;;;;;;;5012405;28;20333;-70
2021/07/27 10:23:54;;;;;;;20.30;16.35;;;;;;;;;;5025372;28;20281;-68
2021/07/27 10:26:33;;;;;;;23.05;15.80;;;;;;;;;;5019087;28;20197;-70
2021/07/27 10:28:59;;;;;;;21.95;14.95;;;;;;;;;;5017251;28;20220;-71
2021/07/27 10:31:33;;;;;;;22.80;16.85;;;;;;;;;;5014798;28;20197;-72
2021/07/27 10:34:00;;;;;;;22.15;16.08;;;;;;;;;;5023020;28;20186;-70
2021/07/27 10:36:27;;;;;;;18.65;16.13;;;;;;;;;;5014977;28;20198;-70
2021/07/27 10:39:03;;;;;;;19.92;16.85;;;;;;;;;;5015528;28;20193;-67
2021/07/27 10:41:34;;;;;;;22.48;18.17;;;;;;;;;;5019203;28;20196;-71
2021/07/27 10:44:04;;;;;;;21.45;18.45;;;;;;;;;;5017603;28;20191;-71
2021/07/27 10:46:38;;;;;;;25.80;17.95;;;;;;;;;;5019599;28;20772;-68
2021/07/27 10:49:04;;;;;;;24.95;18.88;;;;;;;;;;5016528;28;20213;-70
2021/07/27 10:51:36;;;;;;;23.10;17.52;;;;;;;;;;5014547;28;20579;-68
2021/07/27 10:54:01;;;;;;;21.65;17.25;;;;;;;;;;5017348;28;20197;-68
2021/07/27 10:56:31;;;;;;;22.88;17.42;;;;;;;;;;5023065;28;20677;-70
2021/07/27 10:58:57;;;;;;;22.60;17.17;;;;;;;;;;5021900;28;20189;-70
2021/07/27 11:01:29;;;;;;;24.27;16.95;;;;;;;;;;5021293;28;20182;-69
2021/07/27 11:03:56;;;;;;;22.17;17.25;;;;;;;;;;5016994;28;20228;-70
2021/07/27 11:06:21;;;;;;;19.02;16.35;;;;;;;;;;5028694;28;20189;-72
2021/07/27 11:08:47;;;;;;;22.77;16.70;;;;;;;;;;5013530;28;20190;-70
2021/07/27 11:11:13;;;;;;;20.27;15.60;;;;;;;;;;5026903;28;20276;-68
2021/07/27 11:13:39;;;;;;;21.83;15.98;;;;;;;;;;5013684;28;20525;-68
2021/07/27 11:16:05;;;;;;;18.23;14.90;;;;;;;;;;5028370;28;20167;-71
2021/07/27 11:18:31;;;;;;;21.92;15.18;;;;;;;;;;5019406;28;20186;-70
2021/07/27 11:20:58;;;;;;;20.05;16.10;;;;;;;;;;5023940;28;20174;-69
2021/07/27 11:23:25;;;;;;;23.70;17.38;;;;;;;;;;5015852;28;20193;-69
2021/07/27 11:25:52;;;;;;;24.27;16.95;;;;;;;;;;5028813;28;20190;-72
2021/07/27 11:28:18;;;;;;;18.70;16.25;;;;;;;;;;5010050;28;20268;-70
2021/07/27 11:30:44;;;;;;;20.30;15.23;;;;;;;;;;5032525;28;20182;-69
2021/07/27 11:33:14;;;;;;;24.10;16.17;;;;;;;;;;5014160;28;20182;-73
2021/07/27 11:35:44;;;;;;;20.23;14.93;;;;;;;;;;5023974;28;20686;-71
2021/07/27 11:38:10;;;;;;;22.15;16.13;;;;;;;;;;5014395;28;20193;-69
2021/07/27 11:40:36;;;;;;;18.23;15.10;;;;;;;;;;5028771;28;20571;-68
2021/07/27 11:43:09;;;;;;;22.55;15.43;;;;;;;;;;5023693;28;20186;-72
2021/07/27 11:45:45;;;;;;;20.65;14.88;;;;;;;;;;5022456;28;20198;-71
2021/07/27 11:48:12;;;;;;;18.15;15.10;;;;;;;;;;5028944;28;20196;-73
2021/07/27 11:50:39;;;;;;;18.73;15.05;;;;;;;;;;5021257;28;20550;-72
2021/07/27 11:53:06;;;;;;;16.73;14.18;;;;;;;;;;5025523;28;20637;-69
2021/07/27 11:55:37;;;;;;;24.80;15.90;;;;;;;;;;5013324;28;21287;-69
2021/07/27 11:58:03;;;;;;;18.30;14.93;;;;;;;;;;5019996;28;20187;-69
2021/07/27 12:00:31;;;;;;;17.42;14.20;;;;;;;;;;5017396;28;20220;-69
2021/07/27 12:02:56;;;;;;;15.80;13.75;;;;;;;;;;5021948;28;20213;-70
2021/07/27 12:05:22;;;;;;;16.60;12.80;;;;;;;;;;5015678;28;20198;-69
2021/07/27 12:07:47;;;;;;;16.95;13.63;;;;;;;;;;5032855;28;20230;-72
2021/07/27 12:10:13;;;;;;;15.23;13.63;;;;;;;;;;5017354;28;20183;-69
2021/07/27 12:12:39;;;;;;;16.92;13.57;;;;;;;;;;5029173;28;20519;-69
2021/07/27 12:15:06;;;;;;;17.40;13.38;;;;;;;;;;5011593;28;20265;-70
2021/07/27 12:17:31;;;;;;;19.35;14.00;;;;;;;;;;5024137;28;20270;-72
2021/07/27 12:19:56;;;;;;;20.23;12.88;;;;;;;;;;5015920;28;20264;-69
2021/07/27 12:22:22;;;;;;;15.82;13.05;;;;;;;;;;5013735;28;20190;-72
2021/07/27 12:24:47;;;;;;;15.57;13.57;;;;;;;;;;5024434;28;20649;-72
2021/07/27 12:27:13;;;;;;;17.88;14.13;;;;;;;;;;5019345;28;20553;-68
2021/07/27 12:29:38;;;;;;;14.40;12.55;;;;;;;;;;5021980;28;20906;-70
2021/07/27 12:32:04;;;;;;;18.83;14.32;;;;;;;;;;5012655;28;20233;-69
2021/07/27 12:34:29;;;;;;;18.17;14.18;;;;;;;;;;5017105;28;20189;-69
2021/07/27 12:36:55;;;;;;;14.82;12.73;;;;;;;;;;5017775;28;20193;-70
2021/07/27 12:39:22;;;;;;;15.18;12.35;;;;;;;;;;5023185;28;20182;-71
2021/07/27 12:41:48;;;;;;;18.27;11.68;;;;;;;;;;5020842;28;20197;-69
2021/07/27 12:44:15;;;;;;;15.95;12.55;;;;;;;;;;5020264;28;20547;-69
2021/07/27 12:46:41;;;;;;;16.27;12.30;;;;;;;;;;5017744;28;20174;-71
2021/07/27 12:49:09;;;;;;;16.08;12.90;;;;;;;;;;5019312;28;20580;-69
2021/07/27 12:51:34;;;;;;;14.60;12.20;;;;;;;;;;5040956;28;20186;-70
2021/07/27 12:53:59;;;;;;;16.70;11.05;;;;;;;;;;5016444;28;20229;-71
2021/07/27 12:56:25;;;;;;;15.40;11.98;;;;;;;;;;5023820;28;20291;-68
2021/07/27 12:58:50;;;;;;;15.25;11.73;;;;;;;;;;5013446;28;20186;-69
2021/07/27 13:01:15;;;;;;;16.05;12.52;;;;;;;;;;5029598;28;20179;-71
2021/07/27 13:03:41;;;;;;;19.65;13.23;;;;;;;;;;5017383;28;20259;-70
2021/07/27 13:06:07;;;;;;;10.57;8.70;;;;;;;;;;5022315;28;20709;-69
2021/07/27 13:08:34;;;;;;;19.45;10.50;;;;;;;;;;5026029;28;20706;-66
2021/07/27 13:11:00;;;;;;;11.60;8.07;;;;;;;;;;5025345;28;20187;-71
2021/07/27 13:13:25;;;;;;;12.05;5.63;;;;;;;;;;5015376;28;20244;-70
2021/07/27 13:15:50;;;;;;;10.85;3.90;;;;;;;;;;5023738;28;20181;-70
2021/07/27 13:18:17;;;;;;;6.03;3.75;;;;;;;;;;5019364;28;20618;-70
2021/07/27 13:20:43;;;;;;;4.43;2.75;;;;;;;;;;5022403;28;20182;-69
2021/07/27 13:23:08;;;;;;;5.68;3.95;;;;;;;;;;5025073;28;20249;-69
2021/07/27 13:25:35;;;;;;;3.92;2.97;;;;;;;;;;5014092;28;20803;-68
2021/07/27 13:28:00;;;;;;;7.28;2.67;;;;;;;;;;5021327;28;20588;-68
2021/07/27 13:30:25;;;;;;;4.25;3.33;;;;;;;;;;5018568;28;20185;-68
2021/07/27 13:32:51;;;;;;;4.20;2.78;;;;;;;;;;5018485;28;20285;-68
2021/07/27 13:35:16;;;;;;;4.75;3.17;;;;;;;;;;5018780;28;20185;-67
2021/07/27 13:37:41;;;;;;;5.10;2.63;;;;;;;;;;5019194;28;20184;-67
2021/07/27 13:40:08;;;;;;;3.85;2.25;;;;;;;;;;5020068;28;20198;-67
2021/07/27 13:42:34;;;;;;;3.33;2.70;;;;;;;;;;5024369;28;20193;-68
2021/07/27 13:44:59;;;;;;;5.30;2.08;;;;;;;;;;5011564;28;20198;-67
2021/07/27 13:47:25;;;;;;;4.70;2.10;;;;;;;;;;5021079;28;20275;-67
2021/07/27 13:49:50;;;;;;;3.10;2.20;;;;;;;;;;5023214;28;20237;-66
2021/07/27 13:52:15;;;;;;;4.28;1.90;;;;;;;;;;5011659;28;20607;-68
2021/07/27 13:54:41;;;;;;;2.67;2.00;;;;;;;;;;5026736;28;20248;-68
2021/07/27 13:57:06;;;;;;;2.15;1.92;;;;;;;;;;5009360;28;20225;-67
2021/07/27 13:59:33;;;;;;;5.57;2.20;;;;;;;;;;5018593;28;20206;-68
2021/07/27 14:01:58;;;;;;;4.40;2.05;;;;;;;;;;5013528;28;20291;-68
2021/07/27 14:04:23;;;;;;;3.33;2.22;;;;;;;;;;5025571;28;20186;-68
2021/07/27 14:06:50;;;;;;;2.33;2.13;;;;;;;;;;5015700;28;20210;-69
2021/07/27 14:09:15;;;;;;;4.03;2.70;;;;;;;;;;5017092;28;20198;-68
2021/07/27 14:11:40;;;;;;;4.40;2.63;;;;;;;;;;5014891;28;20308;-68
2021/07/27 14:14:06;;;;;;;4.57;2.70;;;;;;;;;;5026279;28;20255;-68
2021/07/27 14:16:31;;;;;;;3.30;2.72;;;;;;;;;;5013736;28;20336;-70
2021/07/27 14:18:56;;;;;;;3.75;2.92;;;;;;;;;;5029448;28;20260;-69
2021/07/27 14:21:22;;;;;;;2.58;2.38;;;;;;;;;;5019699;28;20194;-69
2021/07/27 14:23:48;;;;;;;2.42;2.22;;;;;;;;;;5014837;28;20186;-70
2021/07/27 14:26:13;;;;;;;3.55;2.40;;;;;;;;;;5017027;28;20618;-70
2021/07/27 14:28:39;;;;;;;3.10;2.70;;;;;;;;;;5022777;28;20265;-69
2021/07/27 14:31:05;;;;;;;2.65;1.95;;;;;;;;;;5019055;28;20197;-69
2021/07/27 14:33:30;;;;;;;2.70;2.47;;;;;;;;;;5022823;28;20186;-70
2021/07/27 14:35:55;;;;;;;4.53;3.10;;;;;;;;;;5015869;28;20278;-70
2021/07/27 14:38:21;;;;;;;3.15;2.85;;;;;;;;;;5016790;28;20199;-69